Crash of N1217A 5Y3591 (23rd of February, 2019)

A Boeing 767 for "Prime Air" has been reported crashed outside of Houston. Last data we received saw the aircraft down at 700ft with a high rate of descent.

Time Lat Lon Altitude Heading Speed Vertical Rate
2019-02-23 18:39:04 GMT 29.763931 -94.701836 700 271 334 -22144
2019-02-23 18:39:01 GMT 29.763931 -94.701836 2,550 276 253 -30720
2019-02-23 18:38:48 GMT 29.762615 -94.686852 6,075 276 272 -8320
2019-02-23 18:38:39 GMT 29.761459 -94.673042 6,150 276 243 -448
2019-02-23 18:38:28 GMT 29.760380 -94.660141 6,700 276 240 -2816
2019-02-23 18:38:16 GMT 29.759262 -94.645264 7,075 275 241 -2752
2019-02-23 18:38:08 GMT 29.758518 -94.634941 7,400 275 242 -2240
2019-02-23 18:38:05 GMT 29.758099 -94.629875 7,550 276 244 -2112
2019-02-23 18:38:00 GMT 29.757339 -94.623077 7,725 289 252 -2048
2019-02-23 18:37:55 GMT 29.755875 -94.616791 7,875 289 252 -2048
2019-02-23 18:37:44 GMT 29.749695 -94.604172 8,225 310 267 -2112
2019-02-23 18:37:39 GMT 29.744785 -94.598427 8,450 321 276 -2240
2019-02-23 18:37:34 GMT 29.740173 -94.594452 8,625 328 284 -2240
2019-02-23 18:37:23 GMT 29.726538 -94.585396 9,075 332 289 -2432
2019-02-23 18:37:17 GMT 29.720949 -94.582001 9,250 333 290 -2496
2019-02-23 18:37:13 GMT 29.714573 -94.578232 9,450 334 294 -2112
2019-02-23 18:37:02 GMT 29.700760 -94.570259 9,700 332 299 -512
2019-02-23 18:36:55 GMT 29.693481 -94.565346 9,775 326 298 -704
2019-02-23 18:36:51 GMT 29.689224 -94.561600 9,825 315 295 -768
2019-02-23 18:36:44 GMT 29.682545 -94.553566 9,900 309 296 -576
2019-02-23 18:36:41 GMT 29.679062 -94.548607 9,950 310 298 -960
2019-02-23 18:36:30 GMT 29.669403 -94.536194 10,200 309 299 -1600
2019-02-23 18:36:19 GMT 29.660889 -94.522461 10,475 304 296 -1536
2019-02-23 18:36:08 GMT 29.652939 -94.508759 10,850 304 296 -1600
2019-02-23 18:36:05 GMT 29.650406 -94.504341 10,850 304 296 -1600
2019-02-23 18:35:56 GMT 29.643906 -94.493034 11,075 304 295 -1600
2019-02-23 18:35:46 GMT 29.635481 -94.478546 11,375 304 296 -1600
2019-02-23 18:35:36 GMT 29.627892 -94.465462 11,625 304 295 -1536
2019-02-23 18:35:25 GMT 29.619553 -94.451157 11,900 304 295 -1536
2019-02-23 18:35:14 GMT 29.611542 -94.437424 12,175 304 296 -1600
2019-02-23 18:35:03 GMT 29.603119 -94.423103 12,475 305 296 -1600
2019-02-23 18:34:53 GMT 29.594748 -94.408966 12,750 305 297 -1344
2019-02-23 18:34:41 GMT 29.586685 -94.395325 13,025 304 302 -1664
2019-02-23 18:34:31 GMT 29.578268 -94.381065 13,300 305 305 -1600
2019-02-23 18:34:21 GMT 29.569656 -94.366417 13,600 304 305 -1664
2019-02-23 18:34:10 GMT 29.560949 -94.351395 13,925 304 305 -1728
2019-02-23 18:33:59 GMT 29.552616 -94.336586 14,225 303 305 -1728
2019-02-23 18:33:47 GMT 29.543655 -94.320534 14,525 303 305 -1664
2019-02-23 18:33:36 GMT 29.535873 -94.304367 14,850 292 298 -1344
2019-02-23 18:33:25 GMT 29.530830 -94.288170 15,050 286 298 -896
2019-02-23 18:33:15 GMT 29.528643 -94.274109 15,175 275 299 -896
2019-02-23 18:33:07 GMT 29.528084 -94.261513 15,300 273 303 -832
2019-02-23 18:33:04 GMT 29.527851 -94.254723 15,350 273 306 -832
2019-02-23 18:32:53 GMT 29.527313 -94.239349 15,475 273 313 -960
2019-02-23 18:32:44 GMT 29.526718 -94.222816 15,675 273 318 -960
2019-02-23 18:32:41 GMT 29.526548 -94.218857 15,675 273 318 -960
2019-02-23 18:32:33 GMT 29.525944 -94.198448 15,850 273 316 -896
2019-02-23 18:32:21 GMT 29.525478 -94.185196 15,975 273 316 -896
2019-02-23 18:32:11 GMT 29.524920 -94.168343 16,075 273 314 -320
2019-02-23 18:31:58 GMT 29.524200 -94.145599 16,200 272 316 -640
2019-02-23 18:31:50 GMT 29.523834 -94.132500 16,350 272 320 -1920
2019-02-23 18:31:38 GMT 29.523239 -94.111633 16,725 272 322 -2048
2019-02-23 18:31:28 GMT 29.522690 -94.094681 17,050 273 323 -1856
2019-02-23 18:31:17 GMT 29.522079 -94.077385 17,250 273 328 -1024
2019-02-23 18:31:07 GMT 29.521454 -94.058548 17,450 273 327 -1216
2019-02-23 18:30:57 GMT 29.520823 -94.041138 17,600 273 328 -768
2019-02-23 18:30:45 GMT 29.520124 -94.021263 17,725 273 328 -832
2019-02-23 18:30:35 GMT 29.519426 -94.004028 17,925 273 329 -1024
2019-02-23 18:30:24 GMT 29.518524 -93.982330 18,175 273 331 -2304
2019-02-23 18:30:13 GMT 29.517843 -93.965637 18,550 273 341 -2368
2019-02-23 18:30:03 GMT 29.517191 -93.947327 18,975 273 353 -2240
2019-02-23 18:29:52 GMT 29.516354 -93.926208 19,400 273 364 -2304
2019-02-23 18:29:42 GMT 29.515701 -93.905800 19,925 272 372 -4224
2019-02-23 18:29:32 GMT 29.514910 -93.880760 20,875 273 372 -5824
2019-02-23 18:29:20 GMT 29.514404 -93.864021 21,725 273 377 -4288
2019-02-23 18:29:09 GMT 29.513700 -93.842033 22,400 273 383 -2944
2019-02-23 18:28:59 GMT 29.513077 -93.820763 22,900 272 385 -3008
2019-02-23 18:28:48 GMT 29.512350 -93.798149 23,450 273 388 -3008
2019-02-23 18:28:37 GMT 29.511612 -93.776604 23,975 273 389 -2944
2019-02-23 18:28:27 GMT 29.510834 -93.754364 24,525 273 388 -2944
2019-02-23 18:28:16 GMT 29.510056 -93.731918 25,050 273 388 -2944
2019-02-23 18:28:05 GMT 29.509277 -93.710197 25,575 273 389 -2880
2019-02-23 18:27:55 GMT 29.508347 -93.688553 26,075 273 386 -2944
2019-02-23 18:27:44 GMT 29.507446 -93.667107 26,575 273 382 -2816
2019-02-23 18:27:34 GMT 29.506624 -93.645790 27,075 273 382 -2816
2019-02-23 18:27:23 GMT 29.505787 -93.623444 27,600 273 384 -2816
2019-02-23 18:27:12 GMT 29.505041 -93.601845 28,100 273 386 -2688
2019-02-23 18:27:01 GMT 29.504242 -93.579483 28,750 273 383 -4480
2019-02-23 18:26:56 GMT 29.503832 -93.568077 29,175 273 379 -4672
2019-02-23 18:26:52 GMT 29.503510 -93.559357 29,475 273 378 -3648
2019-02-23 18:26:48 GMT 29.503326 -93.553970 29,625 273 378 -3264
2019-02-23 18:26:41 GMT 29.502731 -93.537544 30,025 273 379 -2560
2019-02-23 18:26:38 GMT 29.502502 -93.532318 30,100 273 380 -2560
2019-02-23 18:26:28 GMT 29.501724 -93.510132 30,575 273 382 -2560
2019-02-23 18:26:16 GMT 29.500992 -93.489639 31,025 273 384 -2624
2019-02-23 18:26:06 GMT 29.500122 -93.466980 31,500 273 387 -2624
2019-02-23 18:25:55 GMT 29.499315 -93.444756 31,875 273 388 -2688
2019-02-23 18:25:47 GMT 29.498611 -93.426888 32,375 273 390 -2688
2019-02-23 18:25:44 GMT 29.498339 -93.420410 32,525 273 390 -2688
2019-02-23 18:25:34 GMT 29.497650 -93.402962 32,900 273 389 -2816
2019-02-23 18:25:31 GMT 29.497360 -93.396660 33,050 273 389 -2816
2019-02-23 18:25:22 GMT 29.496643 -93.378403 33,400 273 390 -2240
2019-02-23 18:25:12 GMT 29.495728 -93.355003 33,725 273 393 -1536
2019-02-23 18:25:01 GMT 29.494995 -93.334351 33,925 273 395 -896
2019-02-23 18:24:50 GMT 29.494148 -93.311623 34,000 273 394 -192
2019-02-23 18:24:41 GMT 29.493402 -93.291801 34,000 273 394 64
2019-02-23 18:24:29 GMT 29.492472 -93.266602 34,000 273 393 0
2019-02-23 18:24:19 GMT 29.491745 -93.245880 34,000 273 393 64
2019-02-23 18:24:07 GMT 29.490749 -93.218292 34,000 273 393 0
2019-02-23 18:23:57 GMT 29.490099 -93.201599 34,000 274 394 0
2019-02-23 18:23:47 GMT 29.489260 -93.179733 34,000 273 394 0
2019-02-23 18:23:37 GMT 29.488129 -93.153343 34,000 274 394 0
2019-02-23 18:23:25 GMT 29.487211 -93.133415 34,000 274 394 0
2019-02-23 18:23:15 GMT 29.486069 -93.111984 34,000 274 395 0
2019-02-23 18:23:04 GMT 29.484465 -93.089310 34,000 277 396 0
2019-02-23 18:22:52 GMT 29.478971 -93.043808 34,000 280 399 0
2019-02-23 18:22:42 GMT 29.478971 -93.043808 34,000 281 400 0
2019-02-23 18:22:31 GMT 29.475128 -93.021187 34,000 282 401 0
2019-02-23 18:22:21 GMT 29.471430 -92.999809 34,000 282 401 0
2019-02-23 18:22:09 GMT 29.467287 -92.975838 34,000 282 401 0
2019-02-23 18:21:58 GMT 29.463238 -92.952682 34,000 282 401 0
2019-02-23 18:21:48 GMT 29.459290 -92.929649 34,000 282 401 0
2019-02-23 18:21:38 GMT 29.455902 -92.910110 34,000 282 401 0
2019-02-23 18:21:28 GMT 29.451971 -92.887680 34,000 282 402 0
2019-02-23 18:21:24 GMT 29.450668 -92.880142 34,025 282 401 0
2019-02-23 18:21:17 GMT 29.447922 -92.864525 34,000 282 401 0
2019-02-23 18:21:14 GMT 29.447067 -92.859406 34,000 282 401 64
2019-02-23 18:21:06 GMT 29.444000 -92.841866 34,000 282 402 0
2019-02-23 18:21:02 GMT 29.442673 -92.834312 34,000 282 403 -64
2019-02-23 18:20:51 GMT 29.438919 -92.813026 34,000 282 403 -64
2019-02-23 18:20:40 GMT 29.434748 -92.789070 34,000 282 402 -64
2019-02-23 18:20:33 GMT 29.431953 -92.772758 34,000 282 402 0
2019-02-23 18:20:30 GMT 29.430977 -92.767319 34,000 282 402 0
2019-02-23 18:20:27 GMT 29.430084 -92.762161 34,000 282 402 64
2019-02-23 18:20:22 GMT 29.427811 -92.749115 34,000 282 402 0
2019-02-23 18:20:19 GMT 29.427206 -92.745773 34,000 282 402 0
2019-02-23 18:20:10 GMT 29.423761 -92.726280 34,000 282 404 0
2019-02-23 18:20:07 GMT 29.422783 -92.720627 34,000 282 404 0
2019-02-23 18:19:58 GMT 29.419327 -92.701050 34,000 282 404 0
2019-02-23 18:19:47 GMT 29.413054 -92.665474 34,000 282 404 0
2019-02-23 18:19:36 GMT 29.411362 -92.655945 34,000 282 404 0
2019-02-23 18:19:25 GMT 29.407196 -92.632179 34,000 282 404 0
2019-02-23 18:19:16 GMT 29.403488 -92.611366 34,025 282 404 -64
2019-02-23 18:19:06 GMT 29.399834 -92.590462 34,000 282 405 0
2019-02-23 18:18:55 GMT 29.395969 -92.568596 34,025 282 405 0
2019-02-23 18:18:52 GMT 29.394619 -92.560997 34,025 282 405 0
2019-02-23 18:18:42 GMT 29.390900 -92.540062 34,000 282 405 0
2019-02-23 18:18:34 GMT 29.387878 -92.522789 34,000 282 405 0
2019-02-23 18:18:31 GMT 29.387329 -92.519623 34,000 282 405 0
2019-02-23 18:18:22 GMT 29.383621 -92.498756 34,000 282 407 0
2019-02-23 18:18:12 GMT 29.379955 -92.478172 34,000 282 407 0
2019-02-23 18:18:08 GMT 29.378265 -92.468544 34,000 282 407 0
2019-02-23 18:18:02 GMT 29.375904 -92.455177 34,000 282 407 0
2019-02-23 18:17:58 GMT 29.374878 -92.449577 34,000 282 407 0
2019-02-23 18:17:49 GMT 29.369852 -92.421356 34,000 282 408 0
2019-02-23 18:17:37 GMT 29.367050 -92.405586 34,000 282 409 0
2019-02-23 18:17:26 GMT 29.362473 -92.380127 34,000 282 409 0
2019-02-23 18:17:16 GMT 29.358309 -92.356888 34,000 282 409 0
2019-02-23 18:17:06 GMT 29.351166 -92.316849 34,025 282 411 0
2019-02-23 18:16:56 GMT 29.351166 -92.316849 34,000 282 411 0
2019-02-23 18:16:50 GMT 29.348419 -92.301270 34,000 282 411 0
2019-02-23 18:16:45 GMT 29.346863 -92.292763 34,000 282 411 -64
2019-02-23 18:16:34 GMT 29.342789 -92.269943 34,025 282 411 0
2019-02-23 18:16:23 GMT 29.338570 -92.246384 34,025 282 412 0
2019-02-23 18:16:12 GMT 29.334427 -92.223114 34,000 282 412 0
2019-02-23 18:16:03 GMT 29.330704 -92.202385 34,000 282 412 64
2019-02-23 18:16:00 GMT 29.329926 -92.198006 34,000 282 412 0
2019-02-23 18:15:52 GMT 29.325073 -92.171066 34,000 282 413 0
2019-02-23 18:15:39 GMT 29.318041 -92.131943 34,000 282 413 64
2019-02-23 18:15:30 GMT 29.318041 -92.131943 34,000 282 413 64
2019-02-23 18:15:27 GMT 29.316879 -92.125641 34,000 282 413 64
2019-02-23 18:15:22 GMT 29.314911 -92.114708 34,000 282 414 64
2019-02-23 18:15:17 GMT 29.312967 -92.103882 34,000 282 414 0
2019-02-23 18:15:06 GMT 29.308729 -92.080452 34,000 282 414 -64
2019-02-23 18:14:55 GMT 29.304840 -92.058670 34,000 282 415 0
2019-02-23 18:14:43 GMT 29.300034 -92.032204 34,000 282 415 -64
2019-02-23 18:14:35 GMT 29.296627 -92.013191 34,025 282 415 -64
2019-02-23 18:14:32 GMT 29.296116 -92.010391 34,025 282 415 0
2019-02-23 18:14:22 GMT 29.291784 -91.986694 34,025 282 416 0
2019-02-23 18:14:16 GMT 29.288200 -91.967094 34,025 282 416 -64
2019-02-23 18:14:10 GMT 29.287033 -91.960693 34,000 282 417 64
2019-02-23 18:14:03 GMT 29.282913 -91.937393 34,000 282 417 64
2019-02-23 18:13:53 GMT 29.280148 -91.922127 34,000 282 418 -64
2019-02-23 18:13:49 GMT 29.278936 -91.915390 34,000 282 418 0
2019-02-23 18:13:43 GMT 29.276779 -91.903801 34,000 282 420 64
2019-02-23 18:13:37 GMT 29.274261 -91.890282 34,000 282 422 -64
2019-02-23 18:13:33 GMT 29.272699 -91.881889 34,000 282 423 -64
2019-02-23 18:13:27 GMT 29.270370 -91.869102 34,025 282 424 64
2019-02-23 18:13:16 GMT 29.265701 -91.843857 34,000 282 425 0
2019-02-23 18:13:12 GMT 29.264040 -91.834984 34,025 282 425 0
2019-02-23 18:13:05 GMT 29.261444 -91.820770 34,000 282 425 64
2019-02-23 18:12:55 GMT 29.256731 -91.795189 34,000 282 424 64
2019-02-23 18:12:48 GMT 29.254578 -91.783432 34,000 282 423 -64
2019-02-23 18:12:44 GMT 29.252518 -91.772072 34,000 282 422 -64
2019-02-23 18:12:34 GMT 29.248863 -91.751839 34,025 282 422 0
2019-02-23 18:12:31 GMT 29.247606 -91.745102 34,025 282 420 -64
2019-02-23 18:12:24 GMT 29.244581 -91.728569 34,025 282 418 -64
2019-02-23 18:12:20 GMT 29.243324 -91.721619 34,025 282 418 -64
2019-02-23 18:12:11 GMT 29.239609 -91.701454 34,025 282 415 128
2019-02-23 18:12:08 GMT 29.238577 -91.695770 34,025 282 414 128
2019-02-23 18:12:03 GMT 29.236267 -91.683235 34,000 282 413 192
2019-02-23 18:11:55 GMT 29.233130 -91.666046 34,000 282 412 128
2019-02-23 18:11:50 GMT 29.231140 -91.655083 34,000 282 411 -64
2019-02-23 18:11:47 GMT 29.230316 -91.650589 33,975 282 411 -128
2019-02-23 18:11:39 GMT 29.226700 -91.631050 34,075 282 410 -832
2019-02-23 18:11:36 GMT 29.226013 -91.627457 34,100 282 409 -1152
2019-02-23 18:11:28 GMT 29.222580 -91.608810 34,300 282 408 -1088
2019-02-23 18:11:25 GMT 29.221527 -91.603104 34,350 282 408 -1152
2019-02-23 18:11:17 GMT 29.214834 -91.567223 34,550 282 409 -896
2019-02-23 18:11:07 GMT 29.214834 -91.567223 34,625 282 409 -768
2019-02-23 18:11:03 GMT 29.213013 -91.557632 34,625 282 409 -768
2019-02-23 18:10:54 GMT 29.209167 -91.536873 34,775 282 408 -832
2019-02-23 18:10:45 GMT 29.205872 -91.519180 34,900 282 406 -1024
2019-02-23 18:10:42 GMT 29.204865 -91.513733 34,950 282 405 -896
2019-02-23 18:10:36 GMT 29.201986 -91.498344 34,975 282 404 64
2019-02-23 18:10:33 GMT 29.201008 -91.493118 34,975 282 404 64
2019-02-23 18:10:24 GMT 29.197844 -91.475830 35,000 282 402 0
2019-02-23 18:10:21 GMT 29.196808 -91.470268 35,000 282 402 -64
2019-02-23 18:10:13 GMT 29.193560 -91.452400 35,025 282 396 -384
2019-02-23 18:10:03 GMT 29.189232 -91.427734 35,175 282 388 -1216
2019-02-23 18:09:50 GMT 29.184906 -91.403923 35,450 282 383 -1920
2019-02-23 18:09:41 GMT 29.182014 -91.388046 35,850 282 381 -2688
2019-02-23 18:09:30 GMT 29.178291 -91.367744 36,375 282 381 -3328
2019-02-23 18:09:20 GMT 29.174469 -91.347198 36,925 283 379 -3136
2019-02-23 18:09:17 GMT 29.173450 -91.341843 37,050 283 379 -3072
2019-02-23 18:09:09 GMT 29.170006 -91.324394 37,450 283 387 -1792
2019-02-23 18:08:59 GMT 29.166367 -91.306526 37,750 283 386 -1536
2019-02-23 18:08:56 GMT 29.164791 -91.298485 37,875 283 387 -1984
2019-02-23 18:08:47 GMT 29.161764 -91.282440 38,175 283 401 -2240
2019-02-23 18:08:44 GMT 29.160416 -91.275520 38,250 283 401 -2240
2019-02-23 18:08:36 GMT 29.156784 -91.256477 38,525 282 405 -1600
2019-02-23 18:08:27 GMT 29.153595 -91.239075 38,775 282 409 -1792
2019-02-23 18:08:24 GMT 29.152771 -91.234856 38,825 283 410 -1792
2019-02-23 18:08:14 GMT 29.148590 -91.212860 39,050 283 413 -1024
2019-02-23 18:08:08 GMT 29.146271 -91.200836 39,175 283 414 -1024
2019-02-23 18:08:05 GMT 29.144348 -91.190750 39,225 283 415 -640
2019-02-23 18:08:01 GMT 29.143112 -91.184303 39,275 282 416 -576
2019-02-23 18:07:53 GMT 29.139933 -91.167191 39,350 282 417 -704
2019-02-23 18:07:42 GMT 29.131622 -91.121613 39,550 282 419 -1344
2019-02-23 18:07:32 GMT 29.131622 -91.121613 39,675 282 419 -1664
2019-02-23 18:07:21 GMT 29.127045 -91.096992 39,875 283 418 -320
2019-02-23 18:07:10 GMT 29.122833 -91.074387 39,975 283 417 -704
2019-02-23 18:07:01 GMT 29.118164 -91.049408 40,000 283 417 0
2019-02-23 18:06:51 GMT 29.114685 -91.031128 40,000 283 416 0
2019-02-23 18:06:47 GMT 29.113678 -91.025795 40,000 283 416 0
2019-02-23 18:06:40 GMT 29.110199 -91.007729 40,000 283 416 -64
2019-02-23 18:06:35 GMT 29.108597 -90.999390 40,000 283 416 0
2019-02-23 18:06:30 GMT 29.106506 -90.988342 40,000 283 416 0
2019-02-23 18:06:26 GMT 29.104366 -90.977188 40,000 283 416 0
2019-02-23 18:06:18 GMT 29.101713 -90.963242 40,000 283 416 0
2019-02-23 18:06:15 GMT 29.100220 -90.955597 40,000 283 416 -64
2019-02-23 18:06:08 GMT 29.097473 -90.941231 40,000 283 416 0
2019-02-23 18:06:03 GMT 29.095568 -90.931038 40,000 283 416 0
2019-02-23 18:05:58 GMT 29.093100 -90.918007 40,000 283 415 0
2019-02-23 18:05:54 GMT 29.091425 -90.909172 40,025 283 415 0
2019-02-23 18:05:46 GMT 29.088638 -90.894539 40,025 283 415 0
2019-02-23 18:05:42 GMT 29.086990 -90.885719 40,025 283 415 0
2019-02-23 18:05:37 GMT 29.084427 -90.872253 40,025 283 415 0
2019-02-23 18:05:32 GMT 29.082733 -90.863480 40,025 283 415 -64
2019-02-23 18:05:25 GMT 29.080206 -90.850098 40,025 283 415 0
2019-02-23 18:05:18 GMT 29.076965 -90.832848 40,025 283 415 64
2019-02-23 18:05:15 GMT 29.075876 -90.827209 40,000 283 415 64
2019-02-23 18:05:10 GMT 29.074219 -90.818321 40,000 283 414 0
2019-02-23 18:05:04 GMT 29.071701 -90.805061 40,025 283 414 64
2019-02-23 18:04:59 GMT 29.069731 -90.794678 40,000 283 414 64
2019-02-23 18:04:53 GMT 29.067307 -90.781982 40,000 283 414 0
2019-02-23 18:04:48 GMT 29.065168 -90.771194 40,000 283 414 0
2019-02-23 18:04:44 GMT 29.062935 -90.759674 40,000 283 414 0
2019-02-23 18:04:38 GMT 29.061026 -90.749870 40,000 283 414 0
2019-02-23 18:04:33 GMT 29.058655 -90.737404 40,000 283 414 -64
2019-02-23 18:04:25 GMT 29.055393 -90.720253 40,025 283 414 0
2019-02-23 18:04:22 GMT 29.054321 -90.714706 40,000 283 413 0
2019-02-23 18:04:15 GMT 29.050964 -90.697525 40,025 283 413 0
2019-02-23 18:04:12 GMT 29.049728 -90.691132 40,025 283 413 0
2019-02-23 18:04:06 GMT 29.047199 -90.678032 40,025 283 413 -64
2019-02-23 18:04:01 GMT 29.045477 -90.669037 40,025 283 413 0
2019-02-23 18:03:54 GMT 29.042770 -90.654900 40,025 283 413 0
2019-02-23 18:03:50 GMT 29.041077 -90.646133 40,025 283 413 0
2019-02-23 18:03:47 GMT 29.039379 -90.637314 40,025 283 413 0
2019-02-23 18:03:40 GMT 29.035217 -90.615921 40,000 283 413 64
2019-02-23 18:03:35 GMT 29.035217 -90.615921 40,025 283 413 64
2019-02-23 18:03:29 GMT 29.032396 -90.601341 40,000 283 413 64
2019-02-23 18:03:25 GMT 29.030720 -90.592834 40,000 283 413 0
2019-02-23 18:03:21 GMT 29.029091 -90.584320 40,000 283 413 0
2019-02-23 18:03:18 GMT 29.028160 -90.579422 40,000 283 413 0
2019-02-23 18:03:15 GMT 29.026344 -90.570053 40,000 283 413 0
2019-02-23 18:03:07 GMT 29.023636 -90.555916 40,000 283 413 64
2019-02-23 18:03:03 GMT 29.021271 -90.543449 40,000 283 413 64
2019-02-23 18:02:58 GMT 29.019608 -90.534630 40,000 283 413 0
2019-02-23 18:02:52 GMT 29.017502 -90.523384 40,000 283 413 0
2019-02-23 18:02:46 GMT 29.015125 -90.510704 40,000 283 413 0
2019-02-23 18:02:37 GMT 29.011093 -90.489525 40,000 283 412 0
2019-02-23 18:02:32 GMT 29.008980 -90.478607 40,000 283 412 0
2019-02-23 18:02:25 GMT 29.006699 -90.466919 40,000 283 412 64
2019-02-23 18:02:15 GMT 29.002371 -90.444839 40,000 283 412 0
2019-02-23 18:02:11 GMT 29.000275 -90.434227 40,000 283 412 0
2019-02-23 18:02:05 GMT 28.997528 -90.420227 40,000 283 413 0
2019-02-23 18:01:59 GMT 28.995806 -90.411507 40,000 283 413 0
2019-02-23 18:01:53 GMT 28.992920 -90.397072 40,000 283 412 0
2019-02-23 18:01:48 GMT 28.991272 -90.388481 40,000 283 412 64
2019-02-23 18:01:43 GMT 28.988777 -90.375580 40,000 283 413 64
2019-02-23 18:01:38 GMT 28.987015 -90.366562 40,000 283 413 0
2019-02-23 18:01:28 GMT 28.982666 -90.344223 40,000 283 413 0
2019-02-23 18:01:21 GMT 28.979599 -90.328430 40,000 283 414 0
2019-02-23 18:01:18 GMT 28.978409 -90.322250 40,000 283 414 0
2019-02-23 18:01:10 GMT 28.975138 -90.305298 40,025 283 414 -128
2019-02-23 18:01:05 GMT 28.973089 -90.294800 40,025 283 414 0
2019-02-23 18:00:57 GMT 28.969458 -90.276222 40,025 283 415 64
2019-02-23 18:00:48 GMT 28.965683 -90.257118 40,000 283 415 0
2019-02-23 18:00:45 GMT 28.964802 -90.252525 40,000 283 415 0
2019-02-23 18:00:36 GMT 28.960613 -90.231148 40,000 283 416 -64
2019-02-23 18:00:24 GMT 28.956116 -90.208580 40,000 283 416 0
2019-02-23 18:00:09 GMT 28.946686 -90.160568 40,000 283 415 -64
2019-02-23 18:00:02 GMT 28.946686 -90.160568 40,000 283 412 0
2019-02-23 17:59:57 GMT 28.944273 -90.148529 40,025 283 414 0
2019-02-23 17:59:52 GMT 28.942200 -90.137749 40,025 283 413 0
2019-02-23 17:59:42 GMT 28.938499 -90.118965 40,025 283 412 0
2019-02-23 17:59:37 GMT 28.935928 -90.105904 40,000 283 411 0
2019-02-23 17:59:32 GMT 28.934006 -90.096184 40,000 283 410 0
2019-02-23 17:59:29 GMT 28.932953 -90.090691 40,000 283 410 0
2019-02-23 17:59:21 GMT 28.929520 -90.073204 40,025 283 409 -64
2019-02-23 17:59:10 GMT 28.925217 -90.051392 40,025 283 406 0
2019-02-23 17:59:01 GMT 28.921143 -90.030792 40,025 283 404 64
2019-02-23 17:58:21 GMT 28.904890 -89.948463 40,000 283 403 0
2019-02-23 17:58:16 GMT 28.903244 -89.940048 40,000 283 404 0
2019-02-23 17:57:55 GMT 28.894554 -89.895790 40,000 283 410 -64
2019-02-23 17:57:33 GMT 28.884686 -89.845978 40,000 283 418 64
2019-02-23 17:57:26 GMT 28.882141 -89.832932 40,000 283 419 0
2019-02-23 17:56:41 GMT 28.862000 -89.732841 40,025 283 424 0

Making use of Plane Finder data

You are free to use the raw flight data, aircraft information and images provided in this report for your own purposes provided the data is correctly attributed to Plane Finder. We ask that you please credit Plane Finder and link to planefinder.net in close proximity to the content.

Optionally one of the following logos (no smaller then 150x24px) can be used and must link to planefinder.net

Embedding the Plane Finder map

You are welcome to embed the Plane Finder playback map on your website to offer visitors a more interactive experience. We suggest using the following HTML code:

<iframe src="//planefinder.net/data/report/5Y3591-N1217A-Alert/map" width="800" height="600" seamless="seamless"></iframe>

Where our data comes from

Plane Finder has a global network of data feeds and antenna radars that receive data broadcast directly from aircraft. The primary technologies used are ADS-B and MLAT. We also show feeds from the FAA and a FLARM glider feed.

Click here to find out more about the Plane Finder network.

How we collect our data